createdAt,value
2019-05-11T00:01:39.519Z,99822.91
2019-05-11T00:04:07.044Z,99828.95
2019-05-11T00:06:34.556Z,99833.59
2019-05-11T00:09:02.042Z,99840.72
2019-05-11T00:11:29.385Z,99844.84
2019-05-11T00:14:00.710Z,99838.50
2019-05-11T00:16:27.958Z,99831.37
2019-05-11T00:18:58.308Z,99835.20
2019-05-11T00:21:25.603Z,99847.03
2019-05-11T00:23:52.888Z,99853.02
2019-05-11T00:26:20.156Z,99855.23
2019-05-11T00:28:47.699Z,99850.27
2019-05-11T00:31:16.227Z,99839.05
2019-05-11T00:33:43.425Z,99845.36
2019-05-11T00:36:10.693Z,99840.36
2019-05-11T00:38:37.988Z,99835.15
2019-05-11T00:41:05.458Z,99838.69
2019-05-11T00:43:32.765Z,99842.00
2019-05-11T00:46:00.288Z,99835.42
2019-05-11T00:48:27.734Z,99840.36
2019-05-11T00:50:54.977Z,99836.80
2019-05-11T00:53:22.239Z,99829.08
2019-05-11T00:55:49.782Z,99831.58
2019-05-11T00:58:17.057Z,99829.97
2019-05-11T01:00:44.581Z,99820.88
2019-05-11T01:03:11.974Z,99813.75
2019-05-11T01:05:39.232Z,99803.27
2019-05-11T01:08:06.388Z,99799.67
2019-05-11T01:10:41.804Z,99797.51
2019-05-11T01:13:05.092Z,99792.57
2019-05-11T01:15:32.610Z,99791.45
2019-05-11T01:17:59.883Z,99783.73
2019-05-11T01:20:27.518Z,99774.69
2019-05-11T01:22:54.734Z,99767.80
2019-05-11T01:25:21.879Z,99764.51
2019-05-11T01:27:51.945Z,99761.77
2019-05-11T01:30:19.408Z,99767.80
2019-05-11T01:32:46.582Z,99776.81
2019-05-11T01:35:14.539Z,99775.17
2019-05-11T01:37:41.693Z,99779.83
2019-05-11T01:40:09.557Z,99770.81
2019-05-11T01:42:36.721Z,99770.51
2019-05-11T01:45:04.756Z,99760.09
2019-05-11T01:47:32.019Z,99756.45
2019-05-11T01:49:59.882Z,99750.97
2019-05-11T01:52:27.237Z,99762.99
2019-05-11T01:54:54.402Z,99760.29
2019-05-11T01:57:21.550Z,99761.62
2019-05-11T01:59:48.697Z,99753.88
2019-05-11T02:02:15.956Z,99746.12
2019-05-11T02:04:43.197Z,99756.80
2019-05-11T02:07:10.556Z,99756.30
2019-05-11T02:09:37.757Z,99754.34
2019-05-11T02:12:05.048Z,99748.03
2019-05-11T02:14:32.203Z,99755.20
2019-05-11T02:16:59.448Z,99752.10
2019-05-11T02:19:26.682Z,99750.37
2019-05-11T02:21:53.946Z,99740.28
2019-05-11T02:24:21.201Z,99735.34
2019-05-11T02:26:48.457Z,99736.95
2019-05-11T02:29:15.593Z,99737.50
2019-05-11T02:31:42.756Z,99735.66
2019-05-11T02:34:10.040Z,99725.80
2019-05-11T02:36:37.483Z,99724.94
2019-05-11T02:39:06.379Z,99737.22
2019-05-11T02:41:36.684Z,99735.80
2019-05-11T02:44:03.223Z,99725.39
2019-05-11T02:46:30.580Z,99709.83
2019-05-11T02:48:57.842Z,99703.98
2019-05-11T02:51:27.725Z,99697.88
2019-05-11T02:53:56.000Z,99693.55
2019-05-11T02:56:23.272Z,99697.32
2019-05-11T02:58:50.461Z,99705.27
2019-05-11T03:01:17.698Z,99717.30
2019-05-11T03:03:44.845Z,99711.28
2019-05-11T03:06:12.325Z,99688.23
2019-05-11T03:08:39.455Z,99674.05
2019-05-11T03:11:06.623Z,99672.86
2019-05-11T03:13:33.983Z,99664.91
2019-05-11T03:16:01.281Z,99660.31
2019-05-11T03:18:28.531Z,99656.20
2019-05-11T03:20:55.675Z,99663.88
2019-05-11T03:23:22.955Z,99669.30
2019-05-11T03:25:50.209Z,99666.83
2019-05-11T03:28:17.371Z,99669.94
2019-05-11T03:30:44.533Z,99673.19
2019-05-11T03:33:11.675Z,99663.88
2019-05-11T03:35:38.883Z,99654.52
2019-05-11T03:38:06.078Z,99642.25
2019-05-11T03:40:33.346Z,99626.02
2019-05-11T03:43:00.479Z,99618.08
2019-05-11T03:45:27.749Z,99617.20
2019-05-11T03:47:54.976Z,99612.33
2019-05-11T03:50:22.125Z,99608.50
2019-05-11T03:52:49.282Z,99608.27
2019-05-11T03:55:16.740Z,99609.64
2019-05-11T03:57:44.049Z,99615.94
2019-05-11T04:00:13.520Z,99623.00
2019-05-11T04:02:40.893Z,99623.37
2019-05-11T04:05:08.448Z,99618.63
2019-05-11T04:07:35.695Z,99617.58
2019-05-11T04:10:03.780Z,99616.48
2019-05-11T04:12:35.318Z,99618.36
2019-05-11T04:15:00.115Z,99617.58
2019-05-11T04:17:27.274Z,99614.02
2019-05-11T04:19:54.501Z,99613.47
2019-05-11T04:22:21.646Z,99609.64
2019-05-11T04:24:48.800Z,99604.80
2019-05-11T04:27:19.492Z,99593.22
2019-05-11T04:29:45.097Z,99592.72
2019-05-11T04:32:12.252Z,99592.13
2019-05-11T04:34:39.524Z,99578.95
2019-05-11T04:37:06.917Z,99582.00
2019-05-11T04:39:34.170Z,99577.35
2019-05-11T04:42:01.534Z,99577.66
2019-05-11T04:44:28.690Z,99574.11
2019-05-11T04:46:55.821Z,99575.52
2019-05-11T04:49:23.180Z,99574.97
2019-05-11T04:51:50.479Z,99578.80
2019-05-11T04:54:17.639Z,99567.55
2019-05-11T04:56:44.792Z,99567.03
2019-05-11T04:59:11.939Z,99567.50
2019-05-11T05:01:39.320Z,99561.25
2019-05-11T05:04:13.676Z,99564.02
2019-05-11T05:06:38.813Z,99563.16
2019-05-11T05:09:05.738Z,99565.34
2019-05-11T05:11:36.674Z,99568.40
2019-05-11T05:14:08.354Z,99577.43
2019-05-11T05:16:31.769Z,99573.87
2019-05-11T05:18:59.013Z,99576.88
2019-05-11T05:21:26.173Z,99574.97
2019-05-11T05:23:53.350Z,99578.29
2019-05-11T05:26:20.516Z,99568.16
2019-05-11T05:28:47.676Z,99550.34
2019-05-11T05:31:14.928Z,99540.69
2019-05-11T05:33:42.191Z,99553.03
2019-05-11T05:36:09.568Z,99551.43
2019-05-11T05:38:36.961Z,99558.52
2019-05-11T05:41:04.421Z,99561.87
2019-05-11T05:43:31.805Z,99557.17
2019-05-11T05:45:59.061Z,99547.88
2019-05-11T05:48:26.317Z,99545.99
2019-05-11T05:50:53.499Z,99550.06
2019-05-11T05:53:20.633Z,99545.72
2019-05-11T05:55:47.865Z,99544.08
2019-05-11T05:58:15.237Z,99540.52
2019-05-11T06:00:42.711Z,99549.52
2019-05-11T06:03:09.968Z,99551.22
2019-05-11T06:05:37.105Z,99541.91
2019-05-11T06:08:04.371Z,99538.88
2019-05-11T06:10:31.507Z,99533.95
2019-05-11T06:12:58.966Z,99527.38
2019-05-11T06:15:26.355Z,99526.04
2019-05-11T06:17:53.600Z,99530.38
2019-05-11T06:20:20.983Z,99533.98
2019-05-11T06:22:48.130Z,99539.14
2019-05-11T06:25:17.977Z,99537.86
2019-05-11T06:27:45.446Z,99545.83
2019-05-11T06:30:14.038Z,99546.93
2019-05-11T06:32:41.280Z,99543.67
2019-05-11T06:35:11.018Z,99543.13
2019-05-11T06:37:38.874Z,99539.28
2019-05-11T06:40:07.093Z,99540.12
2019-05-11T06:42:34.431Z,99532.16
2019-05-11T06:45:01.778Z,99523.97
2019-05-11T06:47:31.404Z,99523.14
2019-05-11T06:49:58.781Z,99521.27
2019-05-11T06:52:26.920Z,99525.41
2019-05-11T06:54:54.217Z,99534.47
2019-05-11T06:57:21.370Z,99534.20
2019-05-11T06:59:48.735Z,99526.47
2019-05-11T07:02:16.103Z,99528.45
2019-05-11T07:04:43.248Z,99520.80
2019-05-11T07:07:10.540Z,99532.30
2019-05-11T07:09:37.906Z,99524.90
2019-05-11T07:12:05.298Z,99523.44
2019-05-11T07:14:32.527Z,99517.41
2019-05-11T07:16:59.677Z,99524.32
2019-05-11T07:19:26.839Z,99534.96
2019-05-11T07:21:54.086Z,99531.67
2019-05-11T07:24:21.334Z,99530.91
2019-05-11T07:26:48.496Z,99530.94
2019-05-11T07:29:15.650Z,99526.28
2019-05-11T07:31:42.922Z,99522.72
2019-05-11T07:34:10.083Z,99521.63
2019-05-11T07:36:38.845Z,99520.23
2019-05-11T07:39:08.296Z,99535.05
2019-05-11T07:41:35.686Z,99538.08
2019-05-11T07:44:03.136Z,99539.16
2019-05-11T07:46:30.388Z,99539.98
2019-05-11T07:48:58.471Z,99539.18
2019-05-11T07:51:28.522Z,99534.26
2019-05-11T07:53:57.643Z,99528.48
2019-05-11T07:56:24.674Z,99530.13
2019-05-11T07:58:52.692Z,99529.31
2019-05-11T08:01:19.857Z,99530.67
2019-05-11T08:03:48.336Z,99536.42
2019-05-11T08:06:18.228Z,99536.17
2019-05-11T08:08:45.293Z,99543.03
2019-05-11T08:11:12.761Z,99543.03
2019-05-11T08:13:39.916Z,99544.11
2019-05-11T08:16:08.257Z,99547.70
2019-05-11T08:18:38.512Z,99553.99
2019-05-11T08:21:05.081Z,99554.00
2019-05-11T08:23:32.231Z,99550.98
2019-05-11T08:25:59.928Z,99544.11
2019-05-11T08:28:28.806Z,99538.63
2019-05-11T08:30:57.948Z,99539.19
2019-05-11T08:33:25.537Z,99547.97
2019-05-11T08:35:52.918Z,99552.89
2019-05-11T08:38:20.212Z,99550.72
2019-05-11T08:40:48.462Z,99555.08
2019-05-11T08:43:17.982Z,99552.90
2019-05-11T08:45:45.002Z,99553.19
2019-05-11T08:48:12.268Z,99556.47
2019-05-11T08:50:39.510Z,99562.77
2019-05-11T08:53:08.617Z,99563.33
2019-05-11T08:55:38.162Z,99560.04
2019-05-11T08:58:07.898Z,99571.27
2019-05-11T09:00:35.244Z,99574.30
2019-05-11T09:03:03.118Z,99571.27
2019-05-11T09:05:30.687Z,99569.09
2019-05-11T09:07:58.030Z,99574.02
2019-05-11T09:10:27.834Z,99579.24
2019-05-11T09:12:54.270Z,99582.53
2019-05-11T09:15:33.616Z,99581.16
2019-05-11T09:17:50.662Z,99586.36
2019-05-11T09:20:18.423Z,99597.89
2019-05-11T09:22:45.700Z,99604.20
2019-05-11T09:25:13.056Z,99612.42
2019-05-11T09:27:43.367Z,99618.73
2019-05-11T09:30:10.662Z,99619.01
2019-05-11T09:32:39.216Z,99621.22
2019-05-11T09:35:08.339Z,99619.84
2019-05-11T09:37:38.123Z,99633.84
2019-05-11T09:40:07.682Z,99639.03
2019-05-11T09:42:34.638Z,99641.23
2019-05-11T09:45:02.107Z,99646.72
2019-05-11T09:47:29.360Z,99655.52
2019-05-11T09:49:58.246Z,99646.45
2019-05-11T09:52:32.366Z,99648.09
2019-05-11T09:54:59.091Z,99656.59
2019-05-11T09:57:27.628Z,99660.16
2019-05-11T09:59:58.232Z,99666.21
2019-05-11T10:02:27.910Z,99667.05
2019-05-11T10:04:54.852Z,99672.27
2019-05-11T10:07:22.208Z,99674.45
2019-05-11T10:09:49.476Z,99678.59
2019-05-11T10:12:18.450Z,99678.59
2019-05-11T10:14:48.441Z,99687.36
2019-05-11T10:17:18.086Z,99693.42
2019-05-11T10:19:47.591Z,99693.66
2019-05-11T10:22:18.422Z,99699.70
2019-05-11T10:24:47.634Z,99698.63
2019-05-11T10:27:18.740Z,99698.88
2019-05-11T10:29:48.459Z,99710.13
2019-05-11T10:32:18.140Z,99702.38
2019-05-11T10:34:47.795Z,99710.91
2019-05-11T10:37:17.525Z,99714.44
2019-05-11T10:39:44.957Z,99715.24
2019-05-11T10:42:18.015Z,99716.48
2019-05-11T10:44:47.718Z,99722.53
2019-05-11T10:47:14.672Z,99727.70
2019-05-11T10:49:42.352Z,99726.29
2019-05-11T10:52:10.177Z,99733.44
2019-05-11T10:54:39.923Z,99737.30
2019-05-11T10:57:08.457Z,99733.46
2019-05-11T10:59:38.593Z,99739.23
2019-05-11T11:02:05.315Z,99734.86
2019-05-11T11:04:32.672Z,99737.88
2019-05-11T11:07:00.234Z,99743.41
2019-05-11T11:09:28.208Z,99744.78
2019-05-11T11:11:57.829Z,99748.93
2019-05-11T11:14:24.878Z,99750.37
2019-05-11T11:16:52.112Z,99753.38
2019-05-11T11:19:19.938Z,99754.50
2019-05-11T11:21:48.797Z,99753.45
2019-05-11T11:24:17.969Z,99755.34
2019-05-11T11:26:48.418Z,99757.91
2019-05-11T11:29:17.876Z,99772.42
2019-05-11T11:31:48.144Z,99764.69
2019-05-11T11:34:18.562Z,99762.45
2019-05-11T11:36:48.141Z,99769.66
2019-05-11T11:39:18.543Z,99765.52
2019-05-11T11:41:48.677Z,99766.36
2019-05-11T11:44:18.330Z,99772.13
2019-05-11T11:46:52.038Z,99777.37
2019-05-11T11:49:24.124Z,99781.09
2019-05-11T11:51:51.858Z,99783.87
2019-05-11T11:54:19.953Z,99793.52
2019-05-11T11:56:48.488Z,99797.95
2019-05-11T11:59:17.865Z,99804.79
2019-05-11T12:01:48.489Z,99804.77
2019-05-11T12:04:15.287Z,99806.95
2019-05-11T12:06:42.860Z,99817.73
2019-05-11T12:09:10.344Z,99826.51
2019-05-11T12:11:38.067Z,99819.67
2019-05-11T12:14:08.504Z,99837.58
2019-05-11T12:16:35.785Z,99845.84
2019-05-11T12:19:05.286Z,99844.73
2019-05-11T12:21:32.405Z,99845.59
2019-05-11T12:23:59.676Z,99847.52
2019-05-11T12:26:28.180Z,99856.05
2019-05-11T12:28:57.545Z,99862.65
2019-05-11T12:31:24.792Z,99868.70
2019-05-11T12:33:51.931Z,99870.63
2019-05-11T12:36:19.298Z,99873.90
2019-05-11T12:38:48.616Z,99873.61
2019-05-11T12:41:15.635Z,99880.78
2019-05-11T12:43:43.000Z,99888.77
2019-05-11T12:46:10.480Z,99888.50
2019-05-11T12:48:38.043Z,99888.23
2019-05-11T12:51:07.774Z,99890.14
2019-05-11T12:53:34.657Z,99906.62
2019-05-11T12:56:02.163Z,99918.45
2019-05-11T12:58:29.313Z,99923.68
2019-05-11T13:00:58.560Z,99919.56
2019-05-11T13:03:27.717Z,99929.73
2019-05-11T13:05:54.954Z,99942.34
2019-05-11T13:08:22.260Z,99942.06
2019-05-11T13:10:49.532Z,99946.45
2019-05-11T13:13:18.201Z,99956.34
2019-05-11T13:15:47.976Z,99954.42
2019-05-11T13:18:15.488Z,99964.03
2019-05-11T13:20:42.914Z,99962.91
2019-05-11T13:23:10.091Z,99975.58
2019-05-11T13:25:38.771Z,99973.91
2019-05-11T13:28:08.498Z,99984.11
2019-05-11T13:30:38.056Z,99990.64
2019-05-11T13:33:05.228Z,99987.89
2019-05-11T13:35:33.192Z,99995.56
2019-05-11T13:38:00.672Z,99998.60
2019-05-11T13:40:28.190Z,99995.92
2019-05-11T13:42:58.113Z,100013.28
2019-05-11T13:45:25.587Z,100010.01
2019-05-11T13:47:56.009Z,100008.34
2019-05-11T13:50:23.072Z,100022.38
2019-05-11T13:52:50.343Z,100020.70
2019-05-11T13:55:19.278Z,100029.25
2019-05-11T13:57:49.958Z,100036.13
2019-05-11T14:00:17.786Z,100030.86
2019-05-11T14:02:45.132Z,100034.48
2019-05-11T14:05:12.971Z,100035.85
2019-05-11T14:07:40.276Z,100049.28
2019-05-11T14:10:08.275Z,100050.13
2019-05-11T14:12:38.317Z,100060.80
2019-05-11T14:15:08.350Z,100063.58
2019-05-11T14:17:35.445Z,100066.80
2019-05-11T14:20:03.779Z,100065.94
2019-05-11T14:22:31.143Z,100079.92
2019-05-11T14:25:00.894Z,100071.92
2019-05-11T14:27:28.448Z,100066.77
2019-05-11T14:29:57.903Z,100075.86
2019-05-11T14:32:25.499Z,100079.46
2019-05-11T14:34:52.700Z,100084.69
2019-05-11T14:37:20.264Z,100088.59
2019-05-11T14:39:48.188Z,100083.42
2019-05-11T14:42:19.949Z,100091.69
2019-05-11T14:44:44.887Z,100104.39
2019-05-11T14:47:12.533Z,100110.18
2019-05-11T14:49:43.284Z,100112.38
2019-05-11T14:52:10.773Z,100111.28
2019-05-11T14:54:38.399Z,100117.08
2019-05-11T14:57:08.154Z,100124.53
2019-05-11T14:59:37.353Z,100138.27
2019-05-11T15:02:24.820Z,100142.94
2019-05-11T15:04:52.182Z,100162.77
2019-05-11T15:07:19.368Z,100173.80
2019-05-11T15:09:48.059Z,100186.39
2019-05-11T15:12:18.364Z,100189.59
2019-05-11T15:14:45.964Z,100198.64
2019-05-11T15:17:13.448Z,100197.81
2019-05-11T15:19:40.599Z,100209.05
2019-05-11T15:22:09.243Z,100229.64
2019-05-11T15:24:38.481Z,100229.78
2019-05-11T15:27:08.021Z,100234.31
2019-05-11T15:29:35.145Z,100234.14
2019-05-11T15:32:05.016Z,100243.16
2019-05-11T15:34:32.343Z,100243.52
2019-05-11T15:36:59.762Z,100239.20
2019-05-11T15:39:28.799Z,100251.42
2019-05-11T15:42:09.308Z,100254.58
2019-05-11T15:44:25.351Z,100273.89
2019-05-11T15:46:52.723Z,100278.27
2019-05-11T15:49:20.142Z,100277.87
2019-05-11T15:51:48.849Z,100298.50
2019-05-11T15:54:18.474Z,100288.47
2019-05-11T15:56:45.547Z,100300.75
2019-05-11T15:59:12.835Z,100305.34
2019-05-11T16:01:41.177Z,100301.67
2019-05-11T16:04:09.226Z,100306.22
2019-05-11T16:06:36.918Z,100312.58
2019-05-11T16:09:09.447Z,100316.41
2019-05-11T16:11:38.843Z,100333.33
2019-05-11T16:14:20.542Z,100336.98
2019-05-11T16:16:48.152Z,100329.59
2019-05-11T16:19:15.800Z,100336.52
2019-05-11T16:21:43.355Z,100335.05
2019-05-11T16:24:11.830Z,100343.84
2019-05-11T16:26:41.846Z,100346.68
2019-05-11T16:29:11.416Z,100351.05
2019-05-11T16:31:38.288Z,100361.35
2019-05-11T16:34:07.850Z,100368.03
2019-05-11T16:36:34.941Z,100384.00
2019-05-11T16:39:04.315Z,100394.48
2019-05-11T16:41:31.611Z,100410.93
2019-05-11T16:43:59.037Z,100417.09
2019-05-11T16:46:28.444Z,100428.42
2019-05-11T16:48:57.854Z,100426.41
2019-05-11T16:51:25.054Z,100439.73
2019-05-11T16:53:52.465Z,100450.95
2019-05-11T16:56:21.726Z,100447.86
2019-05-11T16:58:48.931Z,100444.89
2019-05-11T17:01:18.846Z,100443.48
2019-05-11T17:03:48.223Z,100443.87
2019-05-11T17:06:15.654Z,100451.03
2019-05-11T17:08:42.950Z,100454.64
2019-05-11T17:11:10.190Z,100459.80
2019-05-11T17:13:37.922Z,100479.04
2019-05-11T17:16:08.397Z,100484.22
2019-05-11T17:18:35.146Z,100486.38
2019-05-11T17:21:04.372Z,100505.84
2019-05-11T17:23:31.730Z,100514.59
2019-05-11T17:25:59.355Z,100524.10
2019-05-11T17:28:26.749Z,100527.24
2019-05-11T17:30:54.134Z,100531.48
2019-05-11T17:33:28.769Z,100533.55
2019-05-11T17:35:55.962Z,100540.20
2019-05-11T17:38:23.426Z,100552.98
2019-05-11T17:40:55.084Z,100556.52
2019-05-11T17:43:23.182Z,100551.23
2019-05-11T17:45:58.646Z,100563.55
2019-05-11T17:48:28.690Z,100572.84
2019-05-11T17:50:57.984Z,100577.48
2019-05-11T17:53:25.109Z,100587.65
2019-05-11T17:55:52.287Z,100599.14
2019-05-11T17:58:20.753Z,100600.61
2019-05-11T18:00:48.211Z,100605.41
2019-05-11T18:03:15.700Z,100622.48
2019-05-11T18:05:42.967Z,100625.76
2019-05-11T18:08:10.138Z,100626.07
2019-05-11T18:10:38.479Z,100628.17
2019-05-11T18:13:06.006Z,100629.78
2019-05-11T18:15:33.535Z,100633.44
2019-05-11T18:18:00.857Z,100633.79
2019-05-11T18:20:28.769Z,100644.11
2019-05-11T18:22:57.761Z,100650.05
2019-05-11T18:25:25.216Z,100654.04
2019-05-11T18:27:52.478Z,100657.87
2019-05-11T18:30:19.838Z,100666.50
2019-05-11T18:32:49.105Z,100674.45
2019-05-11T18:35:19.088Z,100686.61
2019-05-11T18:37:47.625Z,100691.63
2019-05-11T18:40:15.051Z,100691.78
2019-05-11T18:42:42.941Z,100706.59
2019-05-11T18:45:11.737Z,100716.48
2019-05-11T18:47:41.263Z,100727.61
2019-05-11T18:50:09.691Z,100733.23
2019-05-11T18:52:37.187Z,100747.20
2019-05-11T18:55:08.437Z,100756.47
2019-05-11T18:57:38.203Z,100758.67
2019-05-11T19:00:09.561Z,100766.03
2019-05-11T19:02:38.462Z,100766.17
2019-05-11T19:05:06.410Z,100772.03
2019-05-11T19:07:33.938Z,100774.67
2019-05-11T19:10:01.199Z,100783.17
2019-05-11T19:12:28.458Z,100790.99
2019-05-11T19:14:58.554Z,100791.96
2019-05-11T19:17:28.875Z,100792.30
2019-05-11T19:19:58.006Z,100794.62
2019-05-11T19:22:25.699Z,100808.05
2019-05-11T19:24:53.035Z,100820.04
2019-05-11T19:27:20.312Z,100821.64
2019-05-11T19:29:48.427Z,100829.73
2019-05-11T19:32:18.981Z,100845.59
2019-05-11T19:34:47.701Z,100846.22
2019-05-11T19:37:15.883Z,100847.72
2019-05-11T19:39:43.824Z,100860.36
2019-05-11T19:42:12.312Z,100863.02
2019-05-11T19:44:39.907Z,100862.66
2019-05-11T19:47:09.008Z,100864.28
2019-05-11T19:49:38.376Z,100866.28
2019-05-11T19:52:08.403Z,100875.69
2019-05-11T19:54:38.006Z,100874.95
2019-05-11T19:57:09.292Z,100876.39
2019-05-11T19:59:38.684Z,100884.81
2019-05-11T20:02:08.744Z,100891.52
2019-05-11T20:04:38.568Z,100887.37
2019-05-11T20:07:05.542Z,100889.22
2019-05-11T20:09:32.804Z,100888.20
2019-05-11T20:12:00.401Z,100896.27
2019-05-11T20:14:28.333Z,100894.47
2019-05-11T20:16:56.315Z,100895.58
2019-05-11T20:19:23.930Z,100896.41
2019-05-11T20:21:51.757Z,100898.05
2019-05-11T20:24:19.142Z,100906.14
2019-05-11T20:26:46.281Z,100909.09
2019-05-11T20:29:13.573Z,100907.23
2019-05-11T20:31:40.856Z,100917.97
2019-05-11T20:34:08.174Z,100911.48
2019-05-11T20:36:37.239Z,100916.60
2019-05-11T20:39:07.434Z,100913.03
2019-05-11T20:41:34.995Z,100917.77
2019-05-11T20:44:04.944Z,100921.63
2019-05-11T20:46:32.454Z,100928.66
2019-05-11T20:49:04.101Z,100933.94
2019-05-11T20:51:36.612Z,100936.20
2019-05-11T20:54:00.848Z,100941.56
2019-05-11T20:56:28.497Z,100947.66
2019-05-11T20:58:59.433Z,100951.75
2019-05-11T21:01:28.639Z,100956.38
2019-05-11T21:03:58.342Z,100969.11
2019-05-11T21:06:25.411Z,100969.23
2019-05-11T21:08:52.762Z,100962.33
2019-05-11T21:11:20.129Z,100965.48
2019-05-11T21:13:48.117Z,100967.78
2019-05-11T21:16:15.521Z,100963.36
2019-05-11T21:18:42.816Z,100976.03
2019-05-11T21:21:10.328Z,100979.41
2019-05-11T21:23:40.523Z,100982.97
2019-05-11T21:26:09.713Z,100975.55
2019-05-11T21:28:38.063Z,100984.95
2019-05-11T21:31:08.016Z,100988.64
2019-05-11T21:33:39.052Z,100986.33
2019-05-11T21:36:08.846Z,100995.67
2019-05-11T21:38:35.969Z,101010.66
2019-05-11T21:41:03.585Z,101014.83
2019-05-11T21:43:32.092Z,101013.77
2019-05-11T21:46:01.279Z,101018.99
2019-05-11T21:48:29.713Z,101010.73
2019-05-11T21:50:59.886Z,101012.39
2019-05-11T21:53:29.026Z,101009.45
2019-05-11T21:55:58.497Z,101020.45
2019-05-11T21:58:29.942Z,101018.57
2019-05-11T22:00:59.440Z,101021.31
2019-05-11T22:03:33.529Z,101017.82
2019-05-11T22:06:01.306Z,101016.36
2019-05-11T22:08:29.534Z,101026.41
2019-05-11T22:10:59.733Z,101030.52
2019-05-11T22:13:28.837Z,101028.09
2019-05-11T22:15:57.645Z,101030.27
2019-05-11T22:18:30.770Z,101031.40
2019-05-11T22:20:54.789Z,101036.72
2019-05-11T22:23:22.603Z,101035.61
2019-05-11T22:25:51.080Z,101035.46
2019-05-11T22:28:18.484Z,101039.76
2019-05-11T22:30:48.368Z,101048.23
2019-05-11T22:33:17.730Z,101055.25
2019-05-11T22:35:45.451Z,101062.23
2019-05-11T22:38:16.616Z,101067.86
2019-05-11T22:40:44.288Z,101072.78
2019-05-11T22:43:18.138Z,101072.13
2019-05-11T22:45:45.564Z,101069.09
2019-05-11T22:48:15.563Z,101070.87
2019-05-11T22:50:45.174Z,101069.30
2019-05-11T22:53:15.279Z,101077.36
2019-05-11T22:55:42.969Z,101079.91
2019-05-11T22:58:10.902Z,101079.34
2019-05-11T23:00:42.098Z,101079.94
2019-05-11T23:03:10.832Z,101091.14
2019-05-11T23:05:41.053Z,101096.72
2019-05-11T23:08:12.299Z,101107.36
2019-05-11T23:10:42.609Z,101110.59
2019-05-11T23:13:11.781Z,101126.16
2019-05-11T23:15:43.588Z,101125.20
2019-05-11T23:18:17.982Z,101125.98
2019-05-11T23:20:47.486Z,101128.55
2019-05-11T23:23:15.097Z,101126.00
2019-05-11T23:25:42.484Z,101129.77
2019-05-11T23:28:09.803Z,101146.67
2019-05-11T23:30:38.965Z,101142.86
2019-05-11T23:33:07.894Z,101144.79
2019-05-11T23:35:37.664Z,101152.84
2019-05-11T23:38:05.244Z,101149.71
2019-05-11T23:40:32.650Z,101151.86
2019-05-11T23:43:00.055Z,101153.74
2019-05-11T23:45:28.136Z,101161.33
2019-05-11T23:47:55.657Z,101161.80
2019-05-11T23:50:23.196Z,101167.23
2019-05-11T23:53:05.522Z,101167.70
2019-05-11T23:55:22.004Z,101171.98
2019-05-11T23:57:51.619Z,101179.21
